Time,TemperatureF,DewpointF,PressureIn,WindDirection,WindDirectionDegrees,WindSpeedMPH,WindSpeedGustMPH,Humidity,HourlyPrecipIn,Conditions,Clouds,dailyrainin,SoftwareType,DateUTC
2013-04-30 00:00:00,49.7,32.8,30.36,SSE,167,1.0,1.0,52,0.00,,,0.00,Wunderground v.1.15,2013-04-30 04:00:00,
2013-04-30 00:05:00,49.7,32.8,30.36,ESE,110,0.0,1.0,52,0.00,,,0.00,Wunderground v.1.15,2013-04-30 04:05:00,
2013-04-30 00:10:00,49.8,32.9,30.36,ESE,110,1.0,1.0,52,0.00,,,0.00,Wunderground v.1.15,2013-04-30 04:10:00,
2013-04-30 00:15:00,49.7,32.8,30.36,ESE,110,2.0,2.0,52,0.00,,,0.00,Wunderground v.1.15,2013-04-30 04:15:00,
2013-04-30 00:20:00,49.6,33.2,30.36,ESE,110,1.0,1.0,53,0.00,,,0.00,Wunderground v.1.15,2013-04-30 04:20:00,
2013-04-30 00:25:00,49.5,33.1,30.36,ESE,110,1.0,1.0,53,0.00,,,0.00,Wunderground v.1.15,2013-04-30 04:25:00,
2013-04-30 00:30:00,49.6,33.2,30.36,ESE,110,1.0,2.0,53,0.00,,,0.00,Wunderground v.1.15,2013-04-30 04:30:00,
2013-04-30 00:35:00,49.7,33.2,30.36,ESE,110,1.0,2.0,53,0.00,,,0.00,Wunderground v.1.15,2013-04-30 04:35:00,
2013-04-30 00:40:00,49.9,33.4,30.36,ESE,110,2.0,2.0,53,0.00,,,0.00,Wunderground v.1.15,2013-04-30 04:40:00,
2013-04-30 00:45:00,49.9,33.4,30.36,ESE,110,1.0,2.0,53,0.00,,,0.00,Wunderground v.1.15,2013-04-30 04:45:00,
2013-04-30 00:50:00,49.9,33.0,30.36,ESE,110,1.0,1.0,52,0.00,,,0.00,Wunderground v.1.15,2013-04-30 04:50:00,
2013-04-30 00:55:00,50.1,33.1,30.35,ESE,110,1.0,1.0,52,0.00,,,0.00,Wunderground v.1.15,2013-04-30 04:55:00,
2013-04-30 01:00:00,50.3,33.8,30.36,ESE,111,1.0,1.0,53,0.00,,,0.00,Wunderground v.1.15,2013-04-30 05:00:00,
2013-04-30 01:05:00,50.5,33.0,30.35,ESE,111,1.0,1.0,51,0.00,,,0.00,Wunderground v.1.15,2013-04-30 05:05:00,
2013-04-30 01:10:00,50.6,33.1,30.35,ESE,111,1.0,1.0,51,0.00,,,0.00,Wunderground v.1.15,2013-04-30 05:10:00,
2013-04-30 01:15:00,50.7,34.6,30.35,ESE,111,0.0,1.0,54,0.00,,,0.00,Wunderground v.1.15,2013-04-30 05:15:00,
2013-04-30 01:20:00,50.6,35.0,30.35,ESE,111,0.0,0.0,55,0.00,,,0.00,Wunderground v.1.15,2013-04-30 05:20:00,
2013-04-30 01:25:00,50.3,34.3,30.35,ESE,111,0.0,1.0,54,0.00,,,0.00,Wunderground v.1.15,2013-04-30 05:25:00,
2013-04-30 01:30:00,50.1,34.5,30.35,ESE,111,0.0,0.0,55,0.00,,,0.00,Wunderground v.1.15,2013-04-30 05:30:00,
2013-04-30 01:35:00,49.9,33.9,30.35,ESE,111,0.0,1.0,54,0.00,,,0.00,Wunderground v.1.15,2013-04-30 05:35:00,
2013-04-30 01:40:00,49.7,33.7,30.35,ESE,111,0.0,0.0,54,0.00,,,0.00,Wunderground v.1.15,2013-04-30 05:40:00,
2013-04-30 01:45:00,49.4,35.2,30.35,ESE,111,0.0,0.0,58,0.00,,,0.00,Wunderground v.1.15,2013-04-30 05:45:00,
2013-04-30 01:50:00,49.3,34.7,30.35,ESE,111,0.0,0.0,57,0.00,,,0.00,Wunderground v.1.15,2013-04-30 05:50:00,
2013-04-30 01:55:00,49.2,34.2,30.35,ESE,111,0.0,0.0,56,0.00,,,0.00,Wunderground v.1.15,2013-04-30 05:55:00,
2013-04-30 02:00:00,49.3,34.3,30.35,ESE,111,0.0,0.0,56,0.00,,,0.00,Wunderground v.1.15,2013-04-30 06:00:00,
2013-04-30 02:05:00,49.4,34.3,30.35,ESE,111,0.0,0.0,56,0.00,,,0.00,Wunderground v.1.15,2013-04-30 06:05:00,
2013-04-30 02:10:00,49.4,34.3,30.35,ESE,111,0.0,0.0,56,0.00,,,0.00,Wunderground v.1.15,2013-04-30 06:10:00,
2013-04-30 02:15:00,49.3,35.1,30.35,ESE,111,0.0,0.0,58,0.00,,,0.00,Wunderground v.1.15,2013-04-30 06:15:00,
2013-04-30 02:20:00,49.2,36.3,30.35,ESE,111,0.0,0.0,61,0.00,,,0.00,Wunderground v.1.15,2013-04-30 06:20:00,
2013-04-30 02:25:00,49.0,35.7,30.35,ESE,111,0.0,0.0,60,0.00,,,0.00,Wunderground v.1.15,2013-04-30 06:25:00,
2013-04-30 02:30:00,48.7,34.6,30.35,ESE,111,0.0,0.0,58,0.00,,,0.00,Wunderground v.1.15,2013-04-30 06:30:00,
2013-04-30 02:35:00,48.6,35.7,30.35,ESE,111,0.0,0.0,61,0.00,,,0.00,Wunderground v.1.15,2013-04-30 06:35:00,
2013-04-30 02:40:00,48.4,35.1,30.35,ESE,111,0.0,0.0,60,0.00,,,0.00,Wunderground v.1.15,2013-04-30 06:40:00,
2013-04-30 02:45:00,48.3,34.2,30.35,ESE,111,0.0,0.0,58,0.00,,,0.00,Wunderground v.1.15,2013-04-30 06:45:00,
2013-04-30 02:50:00,48.3,35.9,30.35,ESE,111,0.0,0.0,62,0.00,,,0.00,Wunderground v.1.15,2013-04-30 06:50:00,
2013-04-30 02:55:00,48.1,34.9,30.35,ESE,111,0.0,0.0,60,0.00,,,0.00,Wunderground v.1.15,2013-04-30 06:55:00,
2013-04-30 03:01:00,48.1,34.4,30.35,ESE,111,0.0,1.0,59,0.00,,,0.00,Wunderground v.1.15,2013-04-30 07:01:00,
2013-04-30 03:05:00,48.1,34.9,30.35,ESE,111,1.0,2.0,60,0.00,,,0.00,Wunderground v.1.15,2013-04-30 07:05:00,
2013-04-30 03:10:00,48.1,34.9,30.35,ESE,111,1.0,2.0,60,0.00,,,0.00,Wunderground v.1.15,2013-04-30 07:10:00,
2013-04-30 03:15:00,48.1,34.9,30.35,ESE,111,1.0,1.0,60,0.00,,,0.00,Wunderground v.1.15,2013-04-30 07:15:00,
2013-04-30 03:20:00,48.2,34.5,30.35,ESE,111,1.0,1.0,59,0.00,,,0.00,Wunderground v.1.15,2013-04-30 07:20:00,
2013-04-30 03:25:00,48.2,34.5,30.35,ESE,111,0.0,0.0,59,0.00,,,0.00,Wunderground v.1.15,2013-04-30 07:25:00,
2013-04-30 03:35:00,47.8,34.2,30.35,ESE,111,0.0,0.0,59,0.00,,,0.00,Wunderground v.1.15,2013-04-30 07:35:00,
2013-04-30 03:40:00,47.7,34.1,30.36,ESE,111,0.0,1.0,59,0.00,,,0.00,Wunderground v.1.15,2013-04-30 07:40:00,
2013-04-30 03:45:00,47.4,34.6,30.36,ESE,111,1.0,1.0,61,0.00,,,0.00,Wunderground v.1.15,2013-04-30 07:45:00,
2013-04-30 03:50:00,47.1,34.7,30.36,ESE,111,1.0,1.0,62,0.00,,,0.00,Wunderground v.1.15,2013-04-30 07:50:00,
2013-04-30 03:55:00,46.9,34.6,30.36,ESE,111,1.0,1.0,62,0.00,,,0.00,Wunderground v.1.15,2013-04-30 07:55:00,
2013-04-30 04:05:00,46.7,34.8,30.36,ESE,111,1.0,1.0,63,0.00,,,0.00,Wunderground v.1.15,2013-04-30 08:05:00,
2013-04-30 04:10:00,46.7,34.8,30.36,ESE,111,1.0,1.0,63,0.00,,,0.00,Wunderground v.1.15,2013-04-30 08:10:00,
2013-04-30 04:15:00,46.8,34.9,30.37,ESE,111,1.0,1.0,63,0.00,,,0.00,Wunderground v.1.15,2013-04-30 08:15:00,
2013-04-30 04:20:00,46.8,34.5,30.37,ESE,111,0.0,1.0,62,0.00,,,0.00,Wunderground v.1.15,2013-04-30 08:20:00,
2013-04-30 04:25:00,46.7,34.4,30.37,ESE,111,0.0,0.0,62,0.00,,,0.00,Wunderground v.1.15,2013-04-30 08:25:00,
2013-04-30 04:30:00,46.7,34.4,30.37,ESE,111,0.0,0.0,62,0.00,,,0.00,Wunderground v.1.15,2013-04-30 08:30:00,
2013-04-30 04:35:00,46.5,34.6,30.37,ESE,111,0.0,0.0,63,0.00,,,0.00,Wunderground v.1.15,2013-04-30 08:35:00,
2013-04-30 04:40:00,46.3,34.4,30.37,ESE,111,0.0,0.0,63,0.00,,,0.00,Wunderground v.1.15,2013-04-30 08:40:00,
2013-04-30 04:45:00,46.3,35.2,30.37,ESE,111,0.0,1.0,65,0.00,,,0.00,Wunderground v.1.15,2013-04-30 08:45:00,
2013-04-30 04:55:00,46.3,34.8,30.37,ESE,111,0.0,1.0,64,0.00,,,0.00,Wunderground v.1.15,2013-04-30 08:55:00,
2013-04-30 05:05:00,46.2,34.7,30.37,ESE,111,0.0,0.0,64,0.00,,,0.00,Wunderground v.1.15,2013-04-30 09:05:00,
2013-04-30 05:10:00,46.2,34.7,30.37,ESE,111,0.0,0.0,64,0.00,,,0.00,Wunderground v.1.15,2013-04-30 09:10:00,
2013-04-30 05:15:00,46.1,34.6,30.37,ESE,111,0.0,0.0,64,0.00,,,0.00,Wunderground v.1.15,2013-04-30 09:15:00,
2013-04-30 05:20:00,46.0,34.5,30.38,ESE,111,0.0,0.0,64,0.00,,,0.00,Wunderground v.1.15,2013-04-30 09:20:00,
2013-04-30 05:25:00,46.0,34.5,30.38,ESE,111,0.0,0.0,64,0.00,,,0.00,Wunderground v.1.15,2013-04-30 09:25:00,
2013-04-30 05:30:00,46.0,34.9,30.38,ESE,111,0.0,0.0,65,0.00,,,0.00,Wunderground v.1.15,2013-04-30 09:30:00,
2013-04-30 05:35:00,46.0,34.9,30.38,ESE,111,0.0,0.0,65,0.00,,,0.00,Wunderground v.1.15,2013-04-30 09:35:00,
2013-04-30 05:40:00,46.0,34.9,30.38,ESE,111,0.0,0.0,65,0.00,,,0.00,Wunderground v.1.15,2013-04-30 09:40:00,
2013-04-30 05:45:00,45.9,34.8,30.39,ESE,111,0.0,0.0,65,0.00,,,0.00,Wunderground v.1.15,2013-04-30 09:45:00,
2013-04-30 05:50:00,45.8,35.1,30.39,ESE,111,0.0,0.0,66,0.00,,,0.00,Wunderground v.1.15,2013-04-30 09:50:00,
2013-04-30 05:55:00,45.8,35.1,30.39,ESE,113,1.0,2.0,66,0.00,,,0.00,Wunderground v.1.15,2013-04-30 09:55:00,
2013-04-30 06:00:00,45.9,35.2,30.39,ESE,113,1.0,1.0,66,0.00,,,0.00,Wunderground v.1.15,2013-04-30 10:00:00,
2013-04-30 06:05:00,46.0,35.3,30.39,ESE,113,0.0,1.0,66,0.00,,,0.00,Wunderground v.1.15,2013-04-30 10:05:00,
2013-04-30 06:10:00,46.2,35.5,30.39,ESE,113,0.0,0.0,66,0.00,,,0.00,Wunderground v.1.15,2013-04-30 10:10:00,
2013-04-30 06:15:00,46.3,35.6,30.39,ESE,113,0.0,0.0,66,0.00,,,0.00,Wunderground v.1.15,2013-04-30 10:15:00,
2013-04-30 06:20:00,46.6,35.8,30.39,ESE,113,0.0,0.0,66,0.00,,,0.00,Wunderground v.1.15,2013-04-30 10:20:00,
2013-04-30 06:25:00,47.0,36.2,30.39,ESE,113,0.0,0.0,66,0.00,,,0.00,Wunderground v.1.15,2013-04-30 10:25:00,
2013-04-30 06:30:00,47.7,36.5,30.40,ESE,113,0.0,0.0,65,0.00,,,0.00,Wunderground v.1.15,2013-04-30 10:30:00,
2013-04-30 06:35:00,48.3,36.3,30.40,ESE,113,0.0,0.0,63,0.00,,,0.00,Wunderground v.1.15,2013-04-30 10:35:00,
2013-04-30 06:40:00,48.8,36.4,30.39,ESE,113,0.0,0.0,62,0.00,,,0.00,Wunderground v.1.15,2013-04-30 10:40:00,
2013-04-30 06:50:00,48.8,36.8,30.40,ESE,113,0.0,0.0,63,0.00,,,0.00,Wunderground v.1.15,2013-04-30 10:50:00,
2013-04-30 06:55:00,48.8,36.4,30.40,ESE,113,0.0,0.0,62,0.00,,,0.00,Wunderground v.1.15,2013-04-30 10:55:00,
2013-04-30 07:00:00,48.9,36.4,30.41,ESE,113,0.0,0.0,62,0.00,,,0.00,Wunderground v.1.15,2013-04-30 11:00:00,
2013-04-30 07:05:00,49.0,36.5,30.41,ESE,113,0.0,0.0,62,0.00,,,0.00,Wunderground v.1.15,2013-04-30 11:05:00,
2013-04-30 07:10:00,49.2,37.1,30.41,ESE,113,0.0,0.0,63,0.00,,,0.00,Wunderground v.1.15,2013-04-30 11:10:00,
2013-04-30 07:15:00,49.4,37.3,30.41,ESE,113,0.0,0.0,63,0.00,,,0.00,Wunderground v.1.15,2013-04-30 11:15:00,
2013-04-30 07:20:00,49.5,37.4,30.41,ESE,113,0.0,2.0,63,0.00,,,0.00,Wunderground v.1.15,2013-04-30 11:20:00,
2013-04-30 07:25:00,49.6,37.5,30.41,ESE,113,1.0,2.0,63,0.00,,,0.00,Wunderground v.1.15,2013-04-30 11:25:00,
2013-04-30 07:30:00,49.7,37.6,30.41,ESE,113,1.0,1.0,63,0.00,,,0.00,Wunderground v.1.15,2013-04-30 11:30:00,
2013-04-30 07:40:00,50.1,38.0,30.41,ESE,113,0.0,1.0,63,0.00,,,0.00,Wunderground v.1.15,2013-04-30 11:40:00,
2013-04-30 07:45:00,50.6,38.5,30.42,ESE,113,0.0,1.0,63,0.00,,,0.00,Wunderground v.1.15,2013-04-30 11:45:00,
2013-04-30 07:50:00,51.1,38.5,30.42,ESE,113,0.0,1.0,62,0.00,,,0.00,Wunderground v.1.15,2013-04-30 11:50:00,
2013-04-30 07:55:00,51.3,38.3,30.42,ESE,113,1.0,1.0,61,0.00,,,0.00,Wunderground v.1.15,2013-04-30 11:55:00,
2013-04-30 08:00:00,51.5,38.5,30.42,ESE,113,1.0,1.0,61,0.00,,,0.00,Wunderground v.1.15,2013-04-30 12:00:00,
2013-04-30 08:05:00,51.7,38.7,30.42,ENE,72,1.0,2.0,61,0.00,,,0.00,Wunderground v.1.15,2013-04-30 12:05:00,
2013-04-30 08:10:00,51.9,38.9,30.42,ENE,71,1.0,1.0,61,0.00,,,0.00,Wunderground v.1.15,2013-04-30 12:10:00,
2013-04-30 08:15:00,52.1,39.1,30.42,NNE,13,2.0,2.0,61,0.00,,,0.00,Wunderground v.1.15,2013-04-30 12:15:00,
2013-04-30 08:20:00,52.0,39.0,30.42,NNE,32,2.0,2.0,61,0.00,,,0.00,Wunderground v.1.15,2013-04-30 12:20:00,
2013-04-30 08:25:00,52.3,39.2,30.42,NNE,32,2.0,2.0,61,0.00,,,0.00,Wunderground v.1.15,2013-04-30 12:25:00,
2013-04-30 08:30:00,52.7,39.2,30.43,NE,55,2.0,2.0,60,0.00,,,0.00,Wunderground v.1.15,2013-04-30 12:30:00,
2013-04-30 08:35:00,53.1,39.1,30.42,ENE,66,1.0,2.0,59,0.00,,,0.00,Wunderground v.1.15,2013-04-30 12:35:00,
2013-04-30 08:40:00,53.5,39.5,30.42,ENE,66,1.0,1.0,59,0.00,,,0.00,Wunderground v.1.15,2013-04-30 12:40:00,
2013-04-30 08:45:00,54.1,39.6,30.42,ENE,66,1.0,1.0,58,0.00,,,0.00,Wunderground v.1.15,2013-04-30 12:45:00,
2013-04-30 08:50:00,55.2,39.8,30.42,ENE,66,1.0,2.0,56,0.00,,,0.00,Wunderground v.1.15,2013-04-30 12:50:00,
2013-04-30 08:55:00,55.6,40.1,30.42,NE,49,1.0,2.0,56,0.00,,,0.00,Wunderground v.1.15,2013-04-30 12:55:00,
2013-04-30 09:00:00,55.7,38.8,30.42,NNE,13,2.0,2.0,53,0.00,,,0.00,Wunderground v.1.15,2013-04-30 13:00:00,
2013-04-30 09:10:00,56.7,39.7,30.42,NE,37,1.0,1.0,53,0.00,,,0.00,Wunderground v.1.15,2013-04-30 13:10:00,
2013-04-30 09:15:00,57.7,39.7,30.42,NNE,21,1.0,2.0,51,0.00,,,0.00,Wunderground v.1.15,2013-04-30 13:15:00,
2013-04-30 09:25:00,57.5,39.5,30.42,NE,34,3.0,4.0,51,0.00,,,0.00,Wunderground v.1.15,2013-04-30 13:25:00,
2013-04-30 09:30:00,57.9,39.9,30.42,NE,36,3.0,3.0,51,0.00,,,0.00,Wunderground v.1.15,2013-04-30 13:30:00,
2013-04-30 09:35:00,58.1,39.5,30.42,ESE,104,3.0,3.0,50,0.00,,,0.00,Wunderground v.1.15,2013-04-30 13:35:00,
2013-04-30 09:40:00,58.9,40.3,30.42,North,5,2.0,3.0,50,0.00,,,0.00,Wunderground v.1.15,2013-04-30 13:40:00,
2013-04-30 09:45:00,58.8,39.1,30.42,WNW,294,2.0,3.0,48,0.00,,,0.00,Wunderground v.1.15,2013-04-30 13:45:00,
2013-04-30 09:50:00,59.2,39.0,30.42,NW,321,2.0,2.0,47,0.00,,,0.00,Wunderground v.1.15,2013-04-30 13:50:00,
2013-04-30 09:55:00,59.4,38.6,30.42,NE,34,2.0,2.0,46,0.00,,,0.00,Wunderground v.1.15,2013-04-30 13:55:00,
2013-04-30 10:00:00,59.6,38.8,30.42,North,351,3.0,3.0,46,0.00,,,0.00,Wunderground v.1.15,2013-04-30 14:00:00,
2013-04-30 10:05:00,60.2,38.2,30.42,North,355,2.0,3.0,44,0.00,,,0.00,Wunderground v.1.15,2013-04-30 14:05:00,
2013-04-30 10:10:00,60.6,39.7,30.42,NNE,15,2.0,3.0,46,0.00,,,0.00,Wunderground v.1.15,2013-04-30 14:10:00,
2013-04-30 10:15:00,60.6,39.7,30.42,ESE,117,3.0,3.0,46,0.00,,,0.00,Wunderground v.1.15,2013-04-30 14:15:00,
2013-04-30 10:20:00,61.4,38.1,30.42,SSE,159,3.0,3.0,42,0.00,,,0.00,Wunderground v.1.15,2013-04-30 14:20:00,
2013-04-30 10:25:00,61.7,36.5,30.42,WNW,289,2.0,3.0,39,0.00,,,0.00,Wunderground v.1.15,2013-04-30 14:25:00,
2013-04-30 10:30:00,61.8,37.2,30.42,SSE,161,3.0,3.0,40,0.00,,,0.00,Wunderground v.1.15,2013-04-30 14:30:00,
2013-04-30 10:35:00,62.4,38.4,30.42,SSW,208,3.0,3.0,41,0.00,,,0.00,Wunderground v.1.15,2013-04-30 14:35:00,
2013-04-30 10:40:00,63.1,37.7,30.42,SSW,211,2.0,5.0,39,0.00,,,0.00,Wunderground v.1.15,2013-04-30 14:40:00,
2013-04-30 10:45:00,62.5,36.5,30.42,West,266,4.0,5.0,38,0.00,,,0.00,Wunderground v.1.15,2013-04-30 14:45:00,
2013-04-30 10:50:00,62.5,36.5,30.42,SW,221,4.0,4.0,38,0.00,,,0.00,Wunderground v.1.15,2013-04-30 14:50:00,
2013-04-30 10:55:00,62.3,36.4,30.42,SW,227,4.0,6.0,38,0.00,,,0.00,Wunderground v.1.15,2013-04-30 14:55:00,
2013-04-30 11:00:00,62.7,36.0,30.42,WSW,245,4.0,9.0,37,0.00,,,0.00,Wunderground v.1.15,2013-04-30 15:00:00,
2013-04-30 11:05:00,62.4,35.8,30.42,WNW,286,4.0,9.0,37,0.00,,,0.00,Wunderground v.1.15,2013-04-30 15:05:00,
2013-04-30 11:10:00,62.7,36.0,30.42,NE,42,4.0,4.0,37,0.00,,,0.00,Wunderground v.1.15,2013-04-30 15:10:00,
2013-04-30 11:15:00,63.2,35.8,30.41,WSW,243,4.0,7.0,36,0.00,,,0.00,Wunderground v.1.15,2013-04-30 15:15:00,
2013-04-30 11:20:00,63.2,35.8,30.42,SW,236,5.0,5.0,36,0.00,,,0.00,Wunderground v.1.15,2013-04-30 15:20:00,
2013-04-30 11:25:00,63.3,35.2,30.41,West,265,6.0,6.0,35,0.00,,,0.00,Wunderground v.1.15,2013-04-30 15:25:00,
2013-04-30 11:30:00,63.4,35.2,30.41,WNW,302,5.0,5.0,35,0.00,,,0.00,Wunderground v.1.15,2013-04-30 15:30:00,
2013-04-30 11:35:00,63.9,35.7,30.41,North,360,4.0,5.0,35,0.00,,,0.00,Wunderground v.1.15,2013-04-30 15:35:00,
2013-04-30 11:40:00,64.7,35.7,30.41,South,180,3.0,3.0,34,0.00,,,0.00,Wunderground v.1.15,2013-04-30 15:40:00,
2013-04-30 11:45:00,64.8,35.0,30.41,NNW,339,3.0,3.0,33,0.00,,,0.00,Wunderground v.1.15,2013-04-30 15:45:00,
2013-04-30 11:50:00,65.2,36.8,30.40,WSW,252,2.0,3.0,35,0.00,,,0.00,Wunderground v.1.15,2013-04-30 15:50:00,
2013-04-30 11:55:00,65.5,35.6,30.40,West,263,3.0,3.0,33,0.00,,,0.00,Wunderground v.1.15,2013-04-30 15:55:00,
2013-04-30 12:00:00,65.3,34.7,30.40,NNW,328,4.0,4.0,32,0.00,,,0.00,Wunderground v.1.15,2013-04-30 16:00:00,
2013-04-30 12:10:00,64.9,35.1,30.40,WSW,252,4.0,4.0,33,0.00,,,0.00,Wunderground v.1.15,2013-04-30 16:10:00,
2013-04-30 12:15:00,65.0,35.2,30.40,WNW,296,4.0,4.0,33,0.00,,,0.00,Wunderground v.1.15,2013-04-30 16:15:00,
2013-04-30 12:20:00,65.6,35.7,30.40,South,186,3.0,3.0,33,0.00,,,0.00,Wunderground v.1.15,2013-04-30 16:20:00,
2013-04-30 12:25:00,65.8,35.1,30.40,ESE,115,4.0,9.0,32,0.00,,,0.00,Wunderground v.1.15,2013-04-30 16:25:00,
2013-04-30 12:30:00,65.6,35.7,30.39,ENE,61,5.0,6.0,33,0.00,,,0.00,Wunderground v.1.15,2013-04-30 16:30:00,
2013-04-30 12:35:00,65.6,36.5,30.39,SW,225,6.0,10.0,34,0.00,,,0.00,Wunderground v.1.15,2013-04-30 16:35:00,
2013-04-30 12:40:00,65.7,35.8,30.39,West,273,6.0,6.0,33,0.00,,,0.00,Wunderground v.1.15,2013-04-30 16:40:00,
2013-04-30 12:45:00,66.0,36.1,30.39,WSW,238,6.0,6.0,33,0.00,,,0.00,Wunderground v.1.15,2013-04-30 16:45:00,
2013-04-30 12:50:00,67.0,36.1,30.39,SE,132,4.0,4.0,32,0.00,,,0.00,Wunderground v.1.15,2013-04-30 16:50:00,
2013-04-30 12:55:00,67.6,37.5,30.39,NE,56,3.0,6.0,33,0.00,,,0.00,Wunderground v.1.15,2013-04-30 16:55:00,
2013-04-30 13:01:00,67.3,36.4,30.39,South,171,4.0,4.0,32,0.00,,,0.00,Wunderground v.1.15,2013-04-30 17:01:00,
2013-04-30 13:10:00,67.8,35.2,30.38,SW,219,3.0,10.0,30,0.00,,,0.00,Wunderground v.1.15,2013-04-30 17:10:00,
2013-04-30 13:15:00,67.4,35.7,30.39,NW,325,4.0,4.0,31,0.00,,,0.00,Wunderground v.1.15,2013-04-30 17:15:00,
2013-04-30 13:20:00,67.6,35.0,30.39,SSW,206,4.0,4.0,30,0.00,,,0.00,Wunderground v.1.15,2013-04-30 17:20:00,
2013-04-30 13:25:00,67.9,35.3,30.39,East,85,3.0,3.0,30,0.00,,,0.00,Wunderground v.1.15,2013-04-30 17:25:00,
2013-04-30 13:30:00,68.0,35.4,30.38,NNW,329,2.0,3.0,30,0.00,,,0.00,Wunderground v.1.15,2013-04-30 17:30:00,
2013-04-30 13:35:00,68.1,35.5,30.38,NE,55,2.0,2.0,30,0.00,,,0.00,Wunderground v.1.15,2013-04-30 17:35:00,
2013-04-30 13:40:00,68.7,35.1,30.38,SW,227,3.0,4.0,29,0.00,,,0.00,Wunderground v.1.15,2013-04-30 17:40:00,
2013-04-30 13:45:00,68.1,35.5,30.39,SSW,202,5.0,5.0,30,0.00,,,0.00,Wunderground v.1.15,2013-04-30 17:45:00,
2013-04-30 13:55:00,68.4,35.7,30.38,SW,217,4.0,5.0,30,0.00,,,0.00,Wunderground v.1.15,2013-04-30 17:55:00,
2013-04-30 14:00:00,68.8,35.2,30.39,South,186,4.0,4.0,29,0.00,,,0.00,Wunderground v.1.15,2013-04-30 18:00:00,
2013-04-30 14:05:00,67.7,34.3,30.39,SW,217,5.0,6.0,29,0.00,,,0.00,Wunderground v.1.15,2013-04-30 18:05:00,
2013-04-30 14:10:00,68.2,35.6,30.39,WSW,255,5.0,7.0,30,0.00,,,0.00,Wunderground v.1.15,2013-04-30 18:10:00,
2013-04-30 14:15:00,67.6,34.2,30.38,NW,324,5.0,7.0,29,0.00,,,0.00,Wunderground v.1.15,2013-04-30 18:15:00,
2013-04-30 14:20:00,68.5,36.7,30.39,SE,132,4.0,4.0,31,0.00,,,0.00,Wunderground v.1.15,2013-04-30 18:20:00,
2013-04-30 14:25:00,68.9,35.3,30.39,SE,136,4.0,5.0,29,0.00,,,0.00,Wunderground v.1.15,2013-04-30 18:25:00,
2013-04-30 14:30:00,68.7,35.1,30.38,ESE,118,5.0,5.0,29,0.00,,,0.00,Wunderground v.1.15,2013-04-30 18:30:00,
2013-04-30 14:35:00,68.5,35.8,30.39,East,98,5.0,5.0,30,0.00,,,0.00,Wunderground v.1.15,2013-04-30 18:35:00,
2013-04-30 14:40:00,68.4,35.7,30.38,East,93,5.0,5.0,30,0.00,,,0.00,Wunderground v.1.15,2013-04-30 18:40:00,
2013-04-30 14:45:00,68.7,36.0,30.38,East,82,5.0,6.0,30,0.00,,,0.00,Wunderground v.1.15,2013-04-30 18:45:00,
2013-04-30 14:50:00,69.0,35.4,30.38,SSE,155,4.0,4.0,29,0.00,,,0.00,Wunderground v.1.15,2013-04-30 18:50:00,
2013-04-30 14:55:00,69.5,34.9,30.38,East,80,4.0,8.0,28,0.00,,,0.00,Wunderground v.1.15,2013-04-30 18:55:00,
2013-04-30 15:00:00,69.4,34.9,30.38,East,94,5.0,5.0,28,0.00,,,0.00,Wunderground v.1.15,2013-04-30 19:00:00,
2013-04-30 15:05:00,70.0,36.3,30.38,South,169,4.0,5.0,29,0.00,,,0.00,Wunderground v.1.15,2013-04-30 19:05:00,
2013-04-30 15:10:00,70.7,36.0,30.38,SSE,149,3.0,4.0,28,0.00,,,0.00,Wunderground v.1.15,2013-04-30 19:10:00,
2013-04-30 15:15:00,70.8,35.1,30.38,SE,129,3.0,5.0,27,0.00,,,0.00,Wunderground v.1.15,2013-04-30 19:15:00,
2013-04-30 15:20:00,69.3,34.8,30.38,ESE,109,4.0,4.0,28,0.00,,,0.00,Wunderground v.1.15,2013-04-30 19:20:00,
2013-04-30 15:25:00,69.5,34.9,30.38,South,178,5.0,5.0,28,0.00,,,0.00,Wunderground v.1.15,2013-04-30 19:25:00,
2013-04-30 15:30:00,70.7,36.0,30.38,SW,221,3.0,6.0,28,0.00,,,0.00,Wunderground v.1.15,2013-04-30 19:30:00,
2013-04-30 15:35:00,70.4,35.7,30.38,WNW,286,3.0,6.0,28,0.00,,,0.00,Wunderground v.1.15,2013-04-30 19:35:00,
2013-04-30 15:45:00,70.0,35.4,30.37,SSW,196,3.0,3.0,28,0.00,,,0.00,Wunderground v.1.15,2013-04-30 19:45:00,
2013-04-30 15:50:00,70.0,34.5,30.38,WNW,296,4.0,4.0,27,0.00,,,0.00,Wunderground v.1.15,2013-04-30 19:50:00,
2013-04-30 15:55:00,70.2,36.4,30.37,South,190,3.0,4.0,29,0.00,,,0.00,Wunderground v.1.15,2013-04-30 19:55:00,
2013-04-30 16:00:00,70.1,34.5,30.37,ESE,123,4.0,7.0,27,0.00,,,0.00,Wunderground v.1.15,2013-04-30 20:00:00,
2013-04-30 16:05:00,69.5,34.0,30.37,SSE,167,5.0,7.0,27,0.00,,,0.00,Wunderground v.1.15,2013-04-30 20:05:00,
2013-04-30 16:10:00,69.3,33.9,30.38,SW,217,6.0,6.0,27,0.00,,,0.00,Wunderground v.1.15,2013-04-30 20:10:00,
2013-04-30 16:15:00,69.0,32.7,30.38,SW,215,6.0,10.0,26,0.00,,,0.00,Wunderground v.1.15,2013-04-30 20:15:00,
2013-04-30 16:20:00,69.0,32.7,30.38,South,186,7.0,7.0,26,0.00,,,0.00,Wunderground v.1.15,2013-04-30 20:20:00,
2013-04-30 16:25:00,68.3,33.9,30.38,South,173,7.0,7.0,28,0.00,,,0.00,Wunderground v.1.15,2013-04-30 20:25:00,
2013-04-30 16:30:00,68.0,31.8,30.38,South,183,8.0,8.0,26,0.00,,,0.00,Wunderground v.1.15,2013-04-30 20:30:00,
2013-04-30 16:35:00,67.9,32.7,30.38,ESE,123,8.0,8.0,27,0.00,,,0.00,Wunderground v.1.15,2013-04-30 20:35:00,
2013-04-30 16:40:00,67.9,31.7,30.38,SSE,162,7.0,7.0,26,0.00,,,0.00,Wunderground v.1.15,2013-04-30 20:40:00,
2013-04-30 16:45:00,67.9,31.7,30.38,South,173,6.0,7.0,26,0.00,,,0.00,Wunderground v.1.15,2013-04-30 20:45:00,
2013-04-30 16:50:00,68.3,32.1,30.38,SE,131,5.0,5.0,26,0.00,,,0.00,Wunderground v.1.15,2013-04-30 20:50:00,
2013-04-30 16:55:00,68.1,31.9,30.38,SE,135,5.0,7.0,26,0.00,,,0.00,Wunderground v.1.15,2013-04-30 20:55:00,
2013-04-30 17:00:00,67.7,31.6,30.39,SSE,163,6.0,9.0,26,0.00,,,0.00,Wunderground v.1.15,2013-04-30 21:00:00,
2013-04-30 17:05:00,67.8,31.6,30.38,SSW,207,6.0,9.0,26,0.00,,,0.00,Wunderground v.1.15,2013-04-30 21:05:00,
2013-04-30 17:15:00,67.5,31.4,30.38,SSW,212,6.0,8.0,26,0.00,,,0.00,Wunderground v.1.15,2013-04-30 21:15:00,
2013-04-30 17:20:00,67.3,31.2,30.38,SE,144,6.0,6.0,26,0.00,,,0.00,Wunderground v.1.15,2013-04-30 21:20:00,
2013-04-30 17:25:00,67.5,32.3,30.39,SSE,161,5.0,6.0,27,0.00,,,0.00,Wunderground v.1.15,2013-04-30 21:25:00,
2013-04-30 17:30:00,67.3,31.2,30.39,WSW,238,5.0,5.0,26,0.00,,,0.00,Wunderground v.1.15,2013-04-30 21:30:00,
2013-04-30 17:35:00,66.7,30.7,30.39,SSE,149,5.0,5.0,26,0.00,,,0.00,Wunderground v.1.15,2013-04-30 21:35:00,
2013-04-30 17:40:00,66.8,31.7,30.39,SW,219,4.0,4.0,27,0.00,,,0.00,Wunderground v.1.15,2013-04-30 21:40:00,
2013-04-30 17:45:00,66.7,31.6,30.40,SSW,209,4.0,6.0,27,0.00,,,0.00,Wunderground v.1.15,2013-04-30 21:45:00,
2013-04-30 17:50:00,66.0,31.0,30.39,ESE,109,5.0,6.0,27,0.00,,,0.00,Wunderground v.1.15,2013-04-30 21:50:00,
2013-04-30 17:55:00,65.4,31.4,30.39,South,186,6.0,6.0,28,0.00,,,0.00,Wunderground v.1.15,2013-04-30 21:55:00,
2013-04-30 18:01:00,65.2,31.2,30.40,South,173,6.0,6.0,28,0.00,,,0.00,Wunderground v.1.15,2013-04-30 22:01:00,
2013-04-30 18:05:00,64.9,31.0,30.40,South,180,6.0,6.0,28,0.00,,,0.00,Wunderground v.1.15,2013-04-30 22:05:00,
2013-04-30 18:10:00,64.8,31.8,30.40,South,175,5.0,6.0,29,0.00,,,0.00,Wunderground v.1.15,2013-04-30 22:10:00,
2013-04-30 18:15:00,64.4,31.4,30.40,SE,132,5.0,13.0,29,0.00,,,0.00,Wunderground v.1.15,2013-04-30 22:15:00,
2013-04-30 18:20:00,64.1,31.2,30.40,South,173,6.0,13.0,29,0.00,,,0.00,Wunderground v.1.15,2013-04-30 22:20:00,
2013-04-30 18:25:00,63.9,31.0,30.40,SSE,160,6.0,10.0,29,0.00,,,0.00,Wunderground v.1.15,2013-04-30 22:25:00,
2013-04-30 18:35:00,63.4,31.4,30.40,SSW,204,6.0,6.0,30,0.00,,,0.00,Wunderground v.1.15,2013-04-30 22:35:00,
2013-04-30 18:40:00,63.2,31.2,30.40,SW,236,4.0,6.0,30,0.00,,,0.00,Wunderground v.1.15,2013-04-30 22:40:00,
2013-04-30 18:45:00,63.1,31.1,30.41,SSE,152,4.0,6.0,30,0.00,,,0.00,Wunderground v.1.15,2013-04-30 22:45:00,
2013-04-30 18:50:00,62.8,30.9,30.41,SW,223,4.0,6.0,30,0.00,,,0.00,Wunderground v.1.15,2013-04-30 22:50:00,
2013-04-30 18:55:00,62.4,31.3,30.41,WSW,250,5.0,5.0,31,0.00,,,0.00,Wunderground v.1.15,2013-04-30 22:55:00,
2013-04-30 19:00:00,62.2,31.2,30.41,SSE,167,5.0,5.0,31,0.00,,,0.00,Wunderground v.1.15,2013-04-30 23:00:00,
2013-04-30 19:05:00,61.9,30.9,30.41,SE,140,4.0,5.0,31,0.00,,,0.00,Wunderground v.1.15,2013-04-30 23:05:00,
2013-04-30 19:10:00,61.5,30.6,30.41,South,180,4.0,5.0,31,0.00,,,0.00,Wunderground v.1.15,2013-04-30 23:10:00,
2013-04-30 19:15:00,61.1,30.2,30.42,SW,225,4.0,5.0,31,0.00,,,0.00,Wunderground v.1.15,2013-04-30 23:15:00,
2013-04-30 19:20:00,60.6,30.6,30.42,SSW,207,5.0,5.0,32,0.00,,,0.00,Wunderground v.1.15,2013-04-30 23:20:00,
2013-04-30 19:25:00,60.3,30.3,30.42,SSE,153,4.0,5.0,32,0.00,,,0.00,Wunderground v.1.15,2013-04-30 23:25:00,
2013-04-30 19:30:00,59.9,30.7,30.42,South,169,4.0,4.0,33,0.00,,,0.00,Wunderground v.1.15,2013-04-30 23:30:00,
2013-04-30 19:35:00,59.5,30.3,30.42,SW,217,4.0,4.0,33,0.00,,,0.00,Wunderground v.1.15,2013-04-30 23:35:00,
2013-04-30 19:40:00,59.1,30.7,30.42,SW,228,3.0,3.0,34,0.00,,,0.00,Wunderground v.1.15,2013-04-30 23:40:00,
2013-04-30 19:45:00,58.8,30.5,30.43,SSW,194,4.0,7.0,34,0.00,,,0.00,Wunderground v.1.15,2013-04-30 23:45:00,
2013-04-30 19:50:00,58.5,30.2,30.43,South,173,4.0,4.0,34,0.00,,,0.00,Wunderground v.1.15,2013-04-30 23:50:00,
2013-04-30 19:55:00,58.3,30.0,30.43,SW,220,3.0,4.0,34,0.00,,,0.00,Wunderground v.1.15,2013-04-30 23:55:00,
2013-04-30 20:00:00,58.2,29.9,30.43,SSE,165,3.0,7.0,34,0.00,,,0.00,Wunderground v.1.15,2013-05-01 00:00:00,
2013-04-30 20:05:00,58.0,29.8,30.44,SE,144,3.0,7.0,34,0.00,,,0.00,Wunderground v.1.15,2013-05-01 00:05:00,
2013-04-30 20:10:00,57.9,29.7,30.43,SSW,196,3.0,3.0,34,0.00,,,0.00,Wunderground v.1.15,2013-05-01 00:10:00,
2013-04-30 20:15:00,57.7,29.5,30.43,South,189,2.0,3.0,34,0.00,,,0.00,Wunderground v.1.15,2013-05-01 00:15:00,
2013-04-30 20:20:00,57.5,30.7,30.44,South,190,2.0,2.0,36,0.00,,,0.00,Wunderground v.1.15,2013-05-01 00:20:00,
2013-04-30 20:25:00,57.3,29.9,30.44,ESE,112,2.0,2.0,35,0.00,,,0.00,Wunderground v.1.15,2013-05-01 00:25:00,
2013-04-30 20:30:00,57.0,29.6,30.44,SSW,200,1.0,2.0,35,0.00,,,0.00,Wunderground v.1.15,2013-05-01 00:30:00,
2013-04-30 20:35:00,56.8,30.1,30.44,SW,215,1.0,2.0,36,0.00,,,0.00,Wunderground v.1.15,2013-05-01 00:35:00,
2013-04-30 20:45:00,56.3,29.0,30.45,South,185,1.0,1.0,35,0.00,,,0.00,Wunderground v.1.15,2013-05-01 00:45:00,
2013-04-30 20:50:00,56.0,29.4,30.45,South,185,1.0,1.0,36,0.00,,,0.00,Wunderground v.1.15,2013-05-01 00:50:00,
2013-04-30 20:55:00,55.6,29.0,30.45,South,188,1.0,1.0,36,0.00,,,0.00,Wunderground v.1.15,2013-05-01 00:55:00,
2013-04-30 21:00:00,55.3,29.4,30.46,SSW,195,1.0,1.0,37,0.00,,,0.00,Wunderground v.1.15,2013-05-01 01:00:00,
2013-04-30 21:05:00,55.1,29.3,30.46,SSW,195,1.0,1.0,37,0.00,,,0.00,Wunderground v.1.15,2013-05-01 01:05:00,
2013-04-30 21:10:00,54.8,28.3,30.46,SSW,194,1.0,1.0,36,0.00,,,0.00,Wunderground v.1.15,2013-05-01 01:10:00,
2013-04-30 21:15:00,54.6,28.2,30.46,SW,224,1.0,4.0,36,0.00,,,0.00,Wunderground v.1.15,2013-05-01 01:15:00,
2013-04-30 21:20:00,54.8,29.0,30.46,WSW,246,1.0,1.0,37,0.00,,,0.00,Wunderground v.1.15,2013-05-01 01:20:00,
2013-04-30 21:25:00,54.7,28.2,30.46,WSW,256,1.0,2.0,36,0.00,,,0.00,Wunderground v.1.15,2013-05-01 01:25:00,
2013-04-30 21:35:00,54.0,28.9,30.46,SSW,198,1.0,2.0,38,0.00,,,0.00,Wunderground v.1.15,2013-05-01 01:35:00,
2013-04-30 21:40:00,53.7,28.7,30.46,SW,215,1.0,1.0,38,0.00,,,0.00,Wunderground v.1.15,2013-05-01 01:40:00,
2013-04-30 21:45:00,53.5,27.8,30.46,SW,214,1.0,1.0,37,0.00,,,0.00,Wunderground v.1.15,2013-05-01 01:45:00,
2013-04-30 21:50:00,53.4,27.8,30.46,SW,214,1.0,1.0,37,0.00,,,0.00,Wunderground v.1.15,2013-05-01 01:50:00,
2013-04-30 21:55:00,53.4,27.8,30.47,SW,214,1.0,1.0,37,0.00,,,0.00,Wunderground v.1.15,2013-05-01 01:55:00,
2013-04-30 22:01:00,53.4,29.0,30.47,SSW,204,0.0,0.0,39,0.00,,,0.00,Wunderground v.1.15,2013-05-01 02:01:00,
2013-04-30 22:05:00,53.5,28.5,30.47,SSW,204,0.0,1.0,38,0.00,,,0.00,Wunderground v.1.15,2013-05-01 02:05:00,
2013-04-30 22:10:00,53.6,27.9,30.47,WNW,300,1.0,1.0,37,0.00,,,0.00,Wunderground v.1.15,2013-05-01 02:10:00,
2013-04-30 22:15:00,53.7,28.7,30.47,WNW,300,1.0,1.0,38,0.00,,,0.00,Wunderground v.1.15,2013-05-01 02:15:00,
2013-04-30 22:20:00,53.7,28.0,30.48,NW,309,1.0,1.0,37,0.00,,,0.00,Wunderground v.1.15,2013-05-01 02:20:00,
2013-04-30 22:25:00,53.6,27.9,30.48,NW,309,1.0,1.0,37,0.00,,,0.00,Wunderground v.1.15,2013-05-01 02:25:00,
2013-04-30 22:30:00,53.5,27.8,30.48,NW,308,2.0,2.0,37,0.00,,,0.00,Wunderground v.1.15,2013-05-01 02:30:00,
2013-04-30 22:35:00,53.5,28.5,30.48,NW,308,1.0,2.0,38,0.00,,,0.00,Wunderground v.1.15,2013-05-01 02:35:00,
2013-04-30 22:40:00,53.3,28.3,30.48,NW,304,1.0,1.0,38,0.00,,,0.00,Wunderground v.1.15,2013-05-01 02:40:00,
2013-04-30 22:45:00,53.3,27.7,30.48,WNW,303,1.0,1.0,37,0.00,,,0.00,Wunderground v.1.15,2013-05-01 02:45:00,
2013-04-30 22:50:00,53.3,27.7,30.48,WNW,303,0.0,0.0,37,0.00,,,0.00,Wunderground v.1.15,2013-05-01 02:50:00,
2013-04-30 22:55:00,53.5,27.2,30.48,NNW,348,0.0,0.0,36,0.00,,,0.00,Wunderground v.1.15,2013-05-01 02:55:00,
2013-04-30 23:01:00,53.4,27.8,30.48,NNW,348,1.0,1.0,37,0.00,,,0.00,Wunderground v.1.15,2013-05-01 03:01:00,
2013-04-30 23:10:00,52.8,27.2,30.48,NNW,348,0.0,1.0,37,0.00,,,0.00,Wunderground v.1.15,2013-05-01 03:10:00,
2013-04-30 23:15:00,52.6,27.0,30.48,NNW,348,0.0,1.0,37,0.00,,,0.00,Wunderground v.1.15,2013-05-01 03:15:00,
2013-04-30 23:20:00,52.6,27.0,30.48,NNW,348,0.0,1.0,37,0.00,,,0.00,Wunderground v.1.15,2013-05-01 03:20:00,
2013-04-30 23:25:00,52.6,27.0,30.48,NNW,348,1.0,1.0,37,0.00,,,0.00,Wunderground v.1.15,2013-05-01 03:25:00,
2013-04-30 23:30:00,52.5,26.9,30.48,NNW,348,1.0,1.0,37,0.00,,,0.00,Wunderground v.1.15,2013-05-01 03:30:00,
2013-04-30 23:35:00,52.5,26.9,30.48,NNW,348,0.0,0.0,37,0.00,,,0.00,Wunderground v.1.15,2013-05-01 03:35:00,
2013-04-30 23:40:00,52.6,27.0,30.48,NNW,348,0.0,0.0,37,0.00,,,0.00,Wunderground v.1.15,2013-05-01 03:40:00,
2013-04-30 23:45:00,52.9,27.3,30.48,NNW,348,0.0,0.0,37,0.00,,,0.00,Wunderground v.1.15,2013-05-01 03:45:00,
2013-04-30 23:50:00,53.2,27.6,30.48,NNW,348,0.0,1.0,37,0.00,,,0.00,Wunderground v.1.15,2013-05-01 03:50:00,
2013-04-30 23:55:00,53.2,26.9,30.48,WNW,294,1.0,1.0,36,0.00,,,0.00,Wunderground v.1.15,2013-05-01 03:55:00,